Time;durP1;ratioP1;P1;durP2;ratioP2;P2;SDS_P1;SDS_P2;PMS_P1;PMS_P2;Temp;Humidity;BMP_temperature;BMP_pressure;BME280_temperature;BME280_humidity;BME280_pressure;Samples;Min_cycle;Max_cycle;Signal;HPM_P1;HPM_P2
2022/07/20 00:01:06;;;;;;;0.43;0.43;;;28.00;55.80;;;;;;4973275;28;20038;-71
2022/07/20 00:03:32;;;;;;;0.70;0.38;;;27.90;54.80;;;;;;4973008;28;20039;-71
2022/07/20 00:05:58;;;;;;;0.28;0.15;;;27.90;55.10;;;;;;4973639;28;20031;-72
2022/07/20 00:11:20;;;;;;;0.65;0.52;;;27.80;55.40;;;;;;4973356;28;20035;-72
2022/07/20 00:13:52;;;;;;;1.38;0.65;;;27.80;55.70;;;;;;4973144;28;20088;-71
2022/07/20 00:16:23;;;;;;;0.30;0.30;;;27.80;55.70;;;;;;4972011;28;20038;-71
2022/07/20 00:18:50;;;;;;;0.30;0.22;;;27.70;55.10;;;;;;4971550;28;20106;-72
2022/07/20 00:21:16;;;;;;;0.35;0.35;;;27.70;54.90;;;;;;4972032;28;20038;-72
2022/07/20 00:23:42;;;;;;;0.10;0.10;;;27.70;55.10;;;;;;4971405;28;20026;-71
2022/07/20 00:26:09;;;;;;;0.00;0.00;;;27.70;54.70;;;;;;4970806;28;20045;-71
2022/07/20 00:28:35;;;;;;;0.40;0.40;;;27.70;54.90;;;;;;4971724;28;20125;-72
2022/07/20 00:31:01;;;;;;;1.10;0.68;;;27.70;54.80;;;;;;4971090;28;20042;-72
2022/07/20 00:33:27;;;;;;;0.80;0.43;;;27.70;55.40;;;;;;4971597;28;20095;-72
2022/07/20 00:35:53;;;;;;;0.45;0.38;;;27.70;55.20;;;;;;4971590;28;20054;-72
2022/07/20 00:38:18;;;;;;;1.15;0.93;;;27.70;54.90;;;;;;4972855;28;20082;-72
2022/07/20 00:40:44;;;;;;;0.70;0.50;;;27.70;57.00;;;;;;4972357;28;20031;-72
2022/07/20 00:43:10;;;;;;;0.10;0.10;;;27.70;56.10;;;;;;4972761;28;20042;-72
2022/07/20 00:45:36;;;;;;;0.38;0.30;;;27.60;55.00;;;;;;4972700;28;20125;-71
2022/07/20 00:48:02;;;;;;;0.10;0.10;;;27.60;54.60;;;;;;4971425;28;20439;-71
2022/07/20 00:50:28;;;;;;;2.08;0.65;;;27.60;54.90;;;;;;4972267;28;20039;-72
2022/07/20 00:52:54;;;;;;;0.32;0.20;;;27.60;54.80;;;;;;4970744;28;20030;-72
2022/07/20 00:55:21;;;;;;;1.23;1.08;;;27.60;55.20;;;;;;4971395;28;20031;-72
2022/07/20 00:57:46;;;;;;;0.43;0.43;;;27.50;57.80;;;;;;4971376;28;20027;-71
2022/07/20 01:00:13;;;;;;;0.28;0.20;;;27.50;58.00;;;;;;4972608;28;20085;-71
2022/07/20 01:02:40;;;;;;;0.47;0.25;;;27.50;58.20;;;;;;4970374;28;20483;-71
2022/07/20 01:05:14;;;;;;;0.10;0.10;;;27.50;58.20;;;;;;4970570;28;20062;-71
2022/07/20 01:07:48;;;;;;;0.80;0.80;;;27.50;56.40;;;;;;4991151;28;20065;-71
2022/07/20 01:10:17;;;;;;;0.57;0.38;;;27.40;58.00;;;;;;4990264;28;20089;-72
2022/07/20 01:12:48;;;;;;;0.22;0.22;;;27.40;57.20;;;;;;4951606;28;20037;-71
2022/07/20 01:15:15;;;;;;;0.95;0.68;;;27.30;56.60;;;;;;4979562;28;20120;-72
2022/07/20 01:17:42;;;;;;;0.10;0.10;;;27.20;57.20;;;;;;4990418;28;20053;-71
2022/07/20 01:20:14;;;;;;;0.38;0.38;;;27.20;58.00;;;;;;4990129;28;20561;-71
2022/07/20 01:22:41;;;;;;;0.55;0.43;;;27.20;58.50;;;;;;4990931;28;20062;-72
2022/07/20 01:25:07;;;;;;;2.42;0.70;;;27.10;59.10;;;;;;4975269;28;20039;-71
2022/07/20 01:27:33;;;;;;;0.63;0.43;;;27.00;60.00;;;;;;4971343;28;20031;-72
2022/07/20 01:29:59;;;;;;;0.03;0.03;;;26.70;60.70;;;;;;4954575;28;20035;-72
2022/07/20 01:32:25;;;;;;;2.38;0.85;;;26.60;61.30;;;;;;4971703;28;20042;-72
2022/07/20 01:34:50;;;;;;;0.57;0.57;;;26.30;61.60;;;;;;4972124;28;20482;-71
2022/07/20 01:37:16;;;;;;;0.05;0.05;;;26.20;61.80;;;;;;4973322;28;20042;-72
2022/07/20 01:39:42;;;;;;;0.00;0.00;;;26.00;62.00;;;;;;4976171;28;20673;-72
2022/07/20 01:42:07;;;;;;;0.57;0.30;;;25.90;62.30;;;;;;4991703;28;20045;-71
2022/07/20 01:44:33;;;;;;;0.28;0.28;;;25.80;60.40;;;;;;4995496;28;20026;-72
2022/07/20 01:46:59;;;;;;;0.80;0.45;;;25.80;61.80;;;;;;4994373;28;20019;-72
2022/07/20 01:49:27;;;;;;;0.43;0.43;;;25.70;62.30;;;;;;4994864;28;20045;-71
2022/07/20 01:51:53;;;;;;;1.88;0.40;;;25.60;62.10;;;;;;4995101;28;20491;-72
2022/07/20 01:54:19;;;;;;;1.23;0.70;;;25.60;61.90;;;;;;4993715;28;20426;-72
2022/07/20 01:56:45;;;;;;;0.15;0.08;;;25.50;61.60;;;;;;4993954;28;20088;-71
2022/07/20 01:59:10;;;;;;;0.90;0.35;;;25.50;61.20;;;;;;4994700;28;20081;-72
2022/07/20 02:01:38;;;;;;;0.32;0.32;;;25.40;60.80;;;;;;4995268;28;20034;-72
2022/07/20 02:04:05;;;;;;;0.32;0.32;;;25.40;60.60;;;;;;4994439;28;20031;-72
2022/07/20 02:06:31;;;;;;;1.13;0.98;;;25.40;60.50;;;;;;4994038;28;20034;-71
2022/07/20 02:08:56;;;;;;;1.15;0.40;;;25.40;60.40;;;;;;4994661;28;20057;-71
2022/07/20 02:11:22;;;;;;;0.25;0.25;;;25.40;60.00;;;;;;4995046;28;20034;-72
2022/07/20 02:13:48;;;;;;;1.08;0.63;;;25.40;60.10;;;;;;4993123;28;20545;-71
2022/07/20 02:16:17;;;;;;;0.82;0.50;;;25.50;59.90;;;;;;4979008;28;20027;-72
2022/07/20 02:18:53;;;;;;;1.45;1.30;;;25.60;60.80;;;;;;4974910;28;20038;-72
2022/07/20 02:21:22;;;;;;;3.25;0.95;;;25.70;60.90;;;;;;4974368;28;20061;-71
2022/07/20 02:23:49;;;;;;;0.05;0.05;;;25.80;60.10;;;;;;4974876;28;20031;-72
2022/07/20 02:26:15;;;;;;;1.20;0.55;;;25.90;60.30;;;;;;4973915;28;20027;-72
2022/07/20 02:28:41;;;;;;;0.35;0.30;;;26.00;59.70;;;;;;4973360;28;20038;-71
2022/07/20 02:31:07;;;;;;;1.35;0.73;;;26.00;58.90;;;;;;4973799;28;20035;-71
2022/07/20 02:33:33;;;;;;;0.38;0.30;;;26.10;59.00;;;;;;4972909;28;20031;-72
2022/07/20 02:35:59;;;;;;;0.45;0.45;;;26.10;58.70;;;;;;4974068;28;20022;-72
2022/07/20 02:38:26;;;;;;;1.10;0.82;;;26.20;58.70;;;;;;4990040;28;20438;-71
2022/07/20 02:40:52;;;;;;;1.90;0.30;;;26.30;59.00;;;;;;4973517;28;20053;-72
2022/07/20 02:43:17;;;;;;;2.45;1.40;;;26.30;58.90;;;;;;4973432;28;20035;-72
2022/07/20 02:45:43;;;;;;;0.73;0.60;;;26.30;59.40;;;;;;4973896;28;20173;-72
2022/07/20 02:48:09;;;;;;;0.65;0.65;;;26.30;59.90;;;;;;4972902;28;20120;-72
2022/07/20 02:50:41;;;;;;;17.17;0.63;;;26.20;60.00;;;;;;4988980;28;20314;-72
2022/07/20 02:53:09;;;;;;;0.15;0.15;;;26.00;60.20;;;;;;4976080;23;20054;-68
2022/07/20 02:55:35;;;;;;;0.98;0.65;;;26.00;60.50;;;;;;4943074;29;20055;-69
2022/07/20 02:58:02;;;;;;;0.93;0.55;;;25.90;60.70;;;;;;4936100;29;20118;-69
2022/07/20 03:00:28;;;;;;;0.52;0.52;;;25.80;61.00;;;;;;4934420;29;20108;-68
2022/07/20 03:02:54;;;;;;;0.52;0.38;;;25.70;61.30;;;;;;4935767;29;20040;-67
2022/07/20 03:05:21;;;;;;;0.32;0.32;;;25.60;61.60;;;;;;4935157;29;20115;-69
2022/07/20 03:07:47;;;;;;;0.15;0.15;;;25.60;62.00;;;;;;4934918;29;20083;-68
2022/07/20 03:10:13;;;;;;;0.22;0.22;;;25.60;62.20;;;;;;4935811;29;20039;-68
2022/07/20 03:12:39;;;;;;;0.70;0.52;;;25.60;62.30;;;;;;4933889;29;20083;-68
2022/07/20 03:15:07;;;;;;;0.05;0.05;;;25.50;62.30;;;;;;4941430;29;20031;-68
2022/07/20 03:17:44;;;;;;;0.55;0.55;;;25.50;62.20;;;;;;4970059;28;20522;-66
2022/07/20 03:20:12;;;;;;;1.58;1.20;;;25.30;62.10;;;;;;4953303;29;20090;-67
2022/07/20 03:22:39;;;;;;;0.47;0.47;;;25.30;62.50;;;;;;4954216;28;20028;-67
2022/07/20 03:25:06;;;;;;;0.55;0.55;;;25.20;63.00;;;;;;4954473;29;20034;-67
2022/07/20 03:27:32;;;;;;;1.10;0.65;;;25.10;63.40;;;;;;4969510;28;20431;-66
2022/07/20 03:29:58;;;;;;;1.58;0.68;;;25.00;63.80;;;;;;4954271;28;20074;-67
2022/07/20 03:32:23;;;;;;;0.65;0.57;;;24.90;64.10;;;;;;4952953;28;20036;-67
2022/07/20 03:34:49;;;;;;;0.05;0.05;;;24.80;64.30;;;;;;4954363;29;20045;-67
2022/07/20 03:37:15;;;;;;;1.13;0.88;;;24.70;64.40;;;;;;4954686;29;20057;-68
2022/07/20 03:39:41;;;;;;;2.20;0.65;;;24.50;64.80;;;;;;4953933;29;20027;-67
2022/07/20 03:42:06;;;;;;;0.70;0.60;;;24.50;65.30;;;;;;4954216;28;20073;-68
2022/07/20 03:44:32;;;;;;;0.95;0.73;;;24.50;65.10;;;;;;4954438;28;20027;-67
2022/07/20 03:46:58;;;;;;;0.60;0.52;;;24.40;65.60;;;;;;4953176;28;20395;-67
2022/07/20 03:49:24;;;;;;;0.35;0.35;;;24.30;65.80;;;;;;4954056;29;20089;-67
2022/07/20 03:51:49;;;;;;;0.47;0.47;;;24.40;66.00;;;;;;4953985;28;20157;-67
2022/07/20 03:54:15;;;;;;;3.60;1.35;;;24.40;65.90;;;;;;4953683;29;20031;-67
2022/07/20 03:56:41;;;;;;;27.55;0.93;;;24.40;66.30;;;;;;4968825;28;20054;-67
2022/07/20 03:59:09;;;;;;;0.40;0.40;;;24.40;66.60;;;;;;4953756;29;20364;-70
2022/07/20 04:01:35;;;;;;;0.40;0.30;;;24.40;66.60;;;;;;4924888;28;20035;-73
2022/07/20 04:04:02;;;;;;;0.10;0.10;;;24.60;66.40;;;;;;4933755;29;20503;-71
2022/07/20 04:06:28;;;;;;;0.28;0.28;;;24.70;66.10;;;;;;4956631;28;20034;-71
2022/07/20 04:08:54;;;;;;;1.08;0.57;;;24.90;65.80;;;;;;4937903;28;20027;-72
2022/07/20 04:11:20;;;;;;;0.20;0.20;;;24.90;65.60;;;;;;4948437;29;20483;-72
2022/07/20 04:13:46;;;;;;;0.38;0.38;;;24.90;65.60;;;;;;4934344;29;20023;-71
2022/07/20 04:16:12;;;;;;;0.70;0.60;;;25.00;65.60;;;;;;4949460;28;20070;-72
2022/07/20 04:18:38;;;;;;;0.15;0.15;;;25.00;65.50;;;;;;4952046;28;20027;-72
2022/07/20 04:21:04;;;;;;;0.50;0.50;;;25.10;65.40;;;;;;4968346;28;20027;-71
2022/07/20 04:23:29;;;;;;;1.23;0.47;;;25.10;65.40;;;;;;4952603;28;20077;-72
2022/07/20 04:25:55;;;;;;;0.10;0.10;;;25.00;65.60;;;;;;4953361;29;20081;-71
2022/07/20 04:28:21;;;;;;;0.30;0.30;;;25.00;65.60;;;;;;4951998;28;20039;-72
2022/07/20 04:30:46;;;;;;;0.40;0.25;;;24.90;65.90;;;;;;4952947;28;20028;-72
2022/07/20 04:33:12;;;;;;;3.80;1.08;;;24.80;66.30;;;;;;4952675;28;20035;-72
2022/07/20 04:35:38;;;;;;;0.70;0.60;;;24.70;66.60;;;;;;4953231;28;20546;-72
2022/07/20 04:38:04;;;;;;;0.38;0.35;;;24.80;66.30;;;;;;4967929;28;20027;-72
2022/07/20 04:40:30;;;;;;;0.28;0.28;;;24.80;66.20;;;;;;4953081;28;20042;-72
2022/07/20 04:42:55;;;;;;;0.40;0.40;;;24.90;66.00;;;;;;4951596;28;20503;-72
2022/07/20 04:45:21;;;;;;;0.00;0.00;;;24.90;65.80;;;;;;4952721;28;20399;-72
2022/07/20 04:47:47;;;;;;;1.17;0.43;;;24.90;65.80;;;;;;4968087;28;20031;-71
2022/07/20 04:50:13;;;;;;;8.38;1.98;;;25.00;65.70;;;;;;4967391;28;20525;-73
2022/07/20 04:52:40;;;;;;;1.55;0.52;;;25.00;65.70;;;;;;4941916;28;20047;-72
2022/07/20 04:55:07;;;;;;;3.78;0.70;;;25.00;65.80;;;;;;4953227;28;20042;-72
2022/07/20 04:57:33;;;;;;;0.00;0.00;;;25.10;65.70;;;;;;4952978;28;20027;-72
2022/07/20 04:59:58;;;;;;;0.13;0.13;;;25.20;65.40;;;;;;4952603;28;20046;-72
2022/07/20 05:02:24;;;;;;;0.15;0.15;;;25.40;65.40;;;;;;4952801;28;20034;-70
2022/07/20 05:04:50;;;;;;;0.20;0.10;;;25.50;66.10;;;;;;4933168;28;20055;-70
2022/07/20 05:07:16;;;;;;;0.30;0.30;;;25.60;65.90;;;;;;4932693;29;20032;-71
2022/07/20 05:09:42;;;;;;;0.35;0.22;;;25.80;65.90;;;;;;4948313;29;20031;-71
2022/07/20 05:12:08;;;;;;;0.75;0.43;;;25.80;65.30;;;;;;4932758;29;20039;-66
2022/07/20 05:14:34;;;;;;;0.43;0.20;;;25.80;65.50;;;;;;4934611;29;20047;-70
2022/07/20 05:17:00;;;;;;;3.25;1.45;;;25.80;65.60;;;;;;4967733;28;20414;-67
2022/07/20 05:19:26;;;;;;;0.20;0.20;;;25.80;65.50;;;;;;4967295;28;20031;-69
2022/07/20 05:21:51;;;;;;;0.10;0.10;;;25.80;65.60;;;;;;4952318;28;20027;-68
2022/07/20 05:24:17;;;;;;;0.65;0.65;;;25.80;65.80;;;;;;4933379;29;20393;-69
2022/07/20 05:26:43;;;;;;;1.10;0.45;;;25.80;65.70;;;;;;4933566;29;20471;-68
2022/07/20 05:29:09;;;;;;;0.13;0.13;;;25.70;65.60;;;;;;4947934;29;20041;-69
2022/07/20 05:31:35;;;;;;;0.98;0.28;;;25.60;65.60;;;;;;4961019;28;20043;-69
2022/07/20 05:34:01;;;;;;;4.57;0.85;;;25.40;65.90;;;;;;4966796;28;20027;-69
2022/07/20 05:36:27;;;;;;;0.60;0.50;;;25.30;66.30;;;;;;4967150;28;20035;-69
2022/07/20 05:38:52;;;;;;;0.88;0.57;;;25.30;66.90;;;;;;4951904;28;20063;-69
2022/07/20 05:41:18;;;;;;;0.55;0.50;;;25.30;67.30;;;;;;4952601;28;20103;-69
2022/07/20 05:43:44;;;;;;;0.47;0.47;;;25.10;67.80;;;;;;4951903;28;20039;-69
2022/07/20 05:46:10;;;;;;;0.63;0.52;;;25.20;68.10;;;;;;4952375;28;20094;-68
2022/07/20 05:48:35;;;;;;;0.73;0.43;;;25.20;68.30;;;;;;4946189;28;20409;-68
2022/07/20 05:51:01;;;;;;;0.15;0.15;;;25.30;68.40;;;;;;4947558;29;20407;-68
2022/07/20 05:53:27;;;;;;;0.32;0.32;;;25.40;68.20;;;;;;4961717;28;20437;-69
2022/07/20 05:55:53;;;;;;;5.30;1.45;;;25.50;68.10;;;;;;4941146;29;20034;-69
2022/07/20 05:58:19;;;;;;;1.70;1.15;;;25.60;68.30;;;;;;4967172;28;20027;-69
2022/07/20 06:00:44;;;;;;;0.00;0.00;;;25.60;68.90;;;;;;4949057;28;20221;-70
2022/07/20 06:03:10;;;;;;;0.22;0.22;;;25.80;68.20;;;;;;4932004;29;20115;-69
2022/07/20 06:05:36;;;;;;;0.43;0.40;;;25.90;67.80;;;;;;4932845;29;20114;-68
2022/07/20 06:08:03;;;;;;;1.55;1.05;;;25.90;67.90;;;;;;4933180;29;20035;-69
2022/07/20 06:10:32;;;;;;;1.33;0.57;;;26.00;68.00;;;;;;4947609;29;20050;-69
2022/07/20 06:12:59;;;;;;;1.65;1.40;;;26.00;67.80;;;;;;4946890;29;20020;-69
2022/07/20 06:15:26;;;;;;;2.58;1.40;;;26.10;67.90;;;;;;4933016;29;20032;-68
2022/07/20 06:17:54;;;;;;;8.38;6.03;;;26.20;68.80;;;;;;4947033;29;20512;-69
2022/07/20 06:20:21;;;;;;;1.40;1.30;;;26.30;68.20;;;;;;4933041;29;20067;-69
2022/07/20 06:22:47;;;;;;;1.75;1.55;;;26.40;67.80;;;;;;4947817;28;20477;-68
2022/07/20 06:25:15;;;;;;;1.25;0.55;;;26.40;66.90;;;;;;4950571;29;20171;-69
2022/07/20 06:27:42;;;;;;;0.65;0.47;;;26.50;66.50;;;;;;4930240;29;20062;-68
2022/07/20 06:30:11;;;;;;;1.02;0.85;;;26.50;66.50;;;;;;4932912;29;20126;-68
2022/07/20 06:32:38;;;;;;;0.75;0.75;;;26.60;67.20;;;;;;4955023;28;20122;-68
2022/07/20 06:35:04;;;;;;;6.43;0.55;;;26.70;66.40;;;;;;4916918;29;20436;-68
2022/07/20 06:37:30;;;;;;;1.40;1.17;;;26.80;66.00;;;;;;4915279;29;20036;-68
2022/07/20 06:39:56;;;;;;;0.80;0.70;;;27.00;66.80;;;;;;4917061;29;20028;-67
2022/07/20 06:42:22;;;;;;;0.77;0.65;;;27.00;66.20;;;;;;4916696;29;20032;-67
2022/07/20 06:44:48;;;;;;;6.32;3.00;;;27.10;66.20;;;;;;4917358;29;20047;-67
2022/07/20 06:47:15;;;;;;;1.85;1.17;;;27.20;65.90;;;;;;4916546;29;20035;-67
2022/07/20 06:49:41;;;;;;;0.65;0.55;;;27.30;65.70;;;;;;4933371;29;20034;-73
2022/07/20 06:52:07;;;;;;;0.65;0.60;;;27.30;65.50;;;;;;4936008;29;20043;-73
2022/07/20 06:54:34;;;;;;;1.20;1.10;;;27.30;65.70;;;;;;4950069;28;20041;-73
2022/07/20 06:57:00;;;;;;;0.30;0.30;;;27.30;65.10;;;;;;4945362;28;20032;-73
2022/07/20 06:59:25;;;;;;;0.55;0.47;;;27.40;65.30;;;;;;4964595;28;20430;-73
2022/07/20 07:01:52;;;;;;;10.13;1.75;;;27.50;65.20;;;;;;4942640;28;20503;-74
2022/07/20 07:04:18;;;;;;;6.10;1.35;;;27.40;64.60;;;;;;4956994;28;20027;-74
2022/07/20 07:06:45;;;;;;;0.28;0.28;;;27.40;64.50;;;;;;4957380;28;20066;-74
2022/07/20 07:09:11;;;;;;;0.35;0.35;;;27.50;64.90;;;;;;4954238;28;20098;-73
2022/07/20 07:11:37;;;;;;;0.55;0.55;;;27.60;64.80;;;;;;4956276;28;20027;-71
2022/07/20 07:14:04;;;;;;;2.30;1.33;;;27.70;65.30;;;;;;4954303;28;20035;-73
2022/07/20 07:16:30;;;;;;;0.52;0.52;;;27.70;65.20;;;;;;4955319;28;20035;-72
2022/07/20 07:18:57;;;;;;;0.35;0.30;;;27.80;65.00;;;;;;4960036;28;20071;-73
2022/07/20 07:21:23;;;;;;;1.08;0.98;;;27.80;63.20;;;;;;4969301;28;20114;-65
2022/07/20 07:23:49;;;;;;;0.25;0.25;;;27.90;63.80;;;;;;4956127;28;20042;-66
2022/07/20 07:26:21;;;;;;;1.00;1.00;;;28.00;64.10;;;;;;4953123;28;20035;-66
2022/07/20 07:28:47;;;;;;;3.00;2.20;;;28.10;64.30;;;;;;4960100;28;20031;-66
2022/07/20 07:31:13;;;;;;;1.02;0.95;;;28.20;63.10;;;;;;4941855;28;20067;-66
2022/07/20 07:33:39;;;;;;;1.48;0.65;;;28.30;62.90;;;;;;4942893;29;20120;-66
2022/07/20 07:36:05;;;;;;;1.23;0.65;;;28.30;61.90;;;;;;4951476;28;20031;-66
2022/07/20 07:38:32;;;;;;;1.80;1.02;;;28.40;61.60;;;;;;4942032;29;20074;-66
2022/07/20 07:40:58;;;;;;;3.35;3.05;;;28.50;61.80;;;;;;4967414;28;20034;-66
2022/07/20 07:43:24;;;;;;;0.55;0.35;;;28.50;61.70;;;;;;4952733;28;20032;-66
2022/07/20 07:45:50;;;;;;;1.00;0.90;;;28.60;61.60;;;;;;4951876;29;20069;-66
2022/07/20 07:48:16;;;;;;;0.50;0.50;;;28.70;61.60;;;;;;4941456;29;20075;-66
2022/07/20 07:50:43;;;;;;;0.52;0.52;;;28.80;61.70;;;;;;4953169;28;20054;-66
2022/07/20 07:53:11;;;;;;;1.13;0.93;;;29.00;61.40;;;;;;4957551;28;20046;-66
2022/07/20 07:55:39;;;;;;;0.90;0.65;;;29.10;61.80;;;;;;4933887;29;20039;-66
2022/07/20 07:58:06;;;;;;;0.52;0.30;;;29.40;60.30;;;;;;4941145;28;20059;-66
2022/07/20 08:00:32;;;;;;;1.15;1.05;;;29.50;60.00;;;;;;4962806;28;20083;-66
2022/07/20 08:02:58;;;;;;;2.13;1.35;;;29.70;59.30;;;;;;4959545;28;20066;-66
2022/07/20 08:05:24;;;;;;;0.32;0.32;;;29.70;58.40;;;;;;4947578;28;20058;-65
2022/07/20 08:07:49;;;;;;;0.85;0.52;;;29.80;58.50;;;;;;4945574;28;20114;-65
2022/07/20 08:10:16;;;;;;;0.38;0.30;;;29.90;57.70;;;;;;4949703;28;20074;-65
2022/07/20 08:12:43;;;;;;;1.80;0.43;;;29.90;57.40;;;;;;4941078;28;20023;-66
2022/07/20 08:15:11;;;;;;;0.10;0.10;;;30.00;57.40;;;;;;4939975;29;20114;-66
2022/07/20 08:17:37;;;;;;;1.80;1.10;;;30.20;57.10;;;;;;4958825;28;20031;-66
2022/07/20 08:20:06;;;;;;;1.33;0.88;;;30.20;57.00;;;;;;4962821;28;20086;-66
2022/07/20 08:22:33;;;;;;;0.63;0.43;;;30.30;57.10;;;;;;4957248;28;20117;-66
2022/07/20 08:24:59;;;;;;;0.32;0.30;;;30.40;56.70;;;;;;4937363;29;20031;-66
2022/07/20 08:27:25;;;;;;;0.17;0.17;;;30.40;56.40;;;;;;4934193;29;20039;-66
2022/07/20 08:29:52;;;;;;;0.32;0.32;;;30.50;56.70;;;;;;4964055;28;20118;-66
2022/07/20 08:32:17;;;;;;;0.60;0.40;;;30.50;56.60;;;;;;4938537;28;20146;-66
2022/07/20 08:34:43;;;;;;;1.90;1.40;;;30.60;56.80;;;;;;4948813;28;20630;-69
2022/07/20 08:37:09;;;;;;;0.60;0.60;;;30.60;56.40;;;;;;4944754;28;20039;-69
2022/07/20 08:39:35;;;;;;;5.10;3.25;;;30.70;57.20;;;;;;4947658;28;20044;-69
2022/07/20 08:42:01;;;;;;;8.18;1.70;;;30.80;57.30;;;;;;4959548;28;20108;-70
2022/07/20 08:44:26;;;;;;;0.52;0.52;;;30.80;56.40;;;;;;4962666;28;20042;-69
2022/07/20 08:46:56;;;;;;;0.30;0.20;;;30.80;56.50;;;;;;4958432;28;20036;-70
2022/07/20 08:49:22;;;;;;;2.15;1.08;;;30.80;56.50;;;;;;4962520;28;20471;-70
2022/07/20 08:51:55;;;;;;;1.08;0.82;;;30.90;56.50;;;;;;4959242;28;20040;-72
2022/07/20 08:54:25;;;;;;;0.20;0.20;;;31.00;56.50;;;;;;4933108;29;20028;-70
2022/07/20 08:56:51;;;;;;;0.20;0.05;;;31.10;56.70;;;;;;4941052;29;20031;-70
2022/07/20 08:59:17;;;;;;;1.48;1.00;;;31.20;56.10;;;;;;4947673;28;20077;-69
2022/07/20 09:02:01;;;;;;;1.25;0.88;;;31.30;56.00;;;;;;4960104;28;20050;-71
2022/07/20 09:04:27;;;;;;;5.43;0.55;;;31.40;56.90;;;;;;4965734;23;20047;-67
2022/07/20 09:06:52;;;;;;;0.25;0.25;;;31.50;56.30;;;;;;4973098;28;20035;-67
2022/07/20 09:09:20;;;;;;;1.90;0.85;;;31.60;56.10;;;;;;4959185;28;20305;-67
2022/07/20 09:11:47;;;;;;;1.27;0.98;;;31.40;55.90;;;;;;4959384;28;20034;-68
2022/07/20 09:14:33;;;;;;;1.27;1.10;;;31.30;56.10;;;;;;4955252;28;20031;-68
2022/07/20 09:16:59;;;;;;;1.75;0.60;;;31.30;56.90;;;;;;4948944;28;20061;-68
2022/07/20 09:19:26;;;;;;;3.20;0.68;;;31.20;57.20;;;;;;4958373;28;20062;-68
2022/07/20 09:21:52;;;;;;;0.10;0.10;;;31.40;56.70;;;;;;4962729;28;20028;-68
2022/07/20 09:24:19;;;;;;;11.50;1.50;;;31.50;56.20;;;;;;4963835;28;20031;-67
2022/07/20 09:26:45;;;;;;;0.20;0.20;;;31.60;56.60;;;;;;4965150;28;20030;-67
2022/07/20 09:29:10;;;;;;;3.50;2.13;;;31.70;56.30;;;;;;4965573;28;20472;-68
2022/07/20 09:31:38;;;;;;;1.00;0.40;;;31.80;56.50;;;;;;4959728;28;20503;-68
2022/07/20 09:34:21;;;;;;;4.25;1.55;;;31.80;56.40;;;;;;4963754;28;20027;-68
2022/07/20 09:36:47;;;;;;;1.30;0.65;;;31.90;55.60;;;;;;4963775;28;20113;-68
2022/07/20 09:39:19;;;;;;;5.82;1.27;;;31.80;55.20;;;;;;4966072;28;20037;-68
2022/07/20 09:41:56;;;;;;;1.38;1.08;;;32.00;56.60;;;;;;4962773;28;20395;-67
2022/07/20 09:44:30;;;;;;;1.02;0.80;;;32.20;55.40;;;;;;4951176;28;20040;-68
2022/07/20 09:46:57;;;;;;;0.30;0.30;;;32.20;56.20;;;;;;4958330;28;20030;-68
2022/07/20 09:49:32;;;;;;;13.30;1.02;;;32.30;56.40;;;;;;4955196;28;20038;-67
2022/07/20 09:52:00;;;;;;;1.55;0.85;;;32.40;56.70;;;;;;4958227;28;20023;-67
2022/07/20 09:54:26;;;;;;;0.73;0.57;;;32.30;55.40;;;;;;4954130;28;20036;-67
2022/07/20 09:56:52;;;;;;;0.20;0.15;;;32.50;55.30;;;;;;4959597;28;20034;-66
2022/07/20 09:59:20;;;;;;;0.28;0.28;;;32.40;54.30;;;;;;4957162;28;20019;-66
2022/07/20 10:01:52;;;;;;;1.85;1.17;;;32.40;54.60;;;;;;4955764;28;20062;-67
2022/07/20 10:04:19;;;;;;;1.08;0.82;;;32.40;55.70;;;;;;4961970;28;20043;-68
2022/07/20 10:06:51;;;;;;;0.05;0.05;;;32.50;55.20;;;;;;4973277;28;20039;-67
2022/07/20 10:09:18;;;;;;;3.22;1.70;;;32.50;55.70;;;;;;4964644;28;20030;-67
2022/07/20 10:11:47;;;;;;;0.40;0.40;;;32.60;55.50;;;;;;4967568;28;20032;-69
2022/07/20 10:14:16;;;;;;;0.50;0.40;;;32.60;56.10;;;;;;4969620;28;20027;-67
2022/07/20 10:16:52;;;;;;;0.80;0.73;;;32.80;55.60;;;;;;4966319;28;20098;-68
2022/07/20 10:19:21;;;;;;;12.40;3.85;;;32.90;55.30;;;;;;4955231;28;20110;-68
2022/07/20 10:21:52;;;;;;;1.40;1.15;;;33.20;56.30;;;;;;4954630;28;20155;-69
2022/07/20 10:24:33;;;;;;;1.55;1.02;;;33.40;55.20;;;;;;4969593;28;20836;-69
2022/07/20 10:27:08;;;;;;;;;;;33.40;54.00;;;;;;4947733;28;20129;-69
2022/07/20 10:29:53;;;;;;;1.65;1.02;;;33.50;54.00;;;;;;4969521;28;20267;-68
2022/07/20 10:32:28;;;;;;;1.30;0.50;;;33.60;53.90;;;;;;4964427;28;20037;-68
2022/07/20 10:34:59;;;;;;;1.40;0.77;;;33.60;54.50;;;;;;4955933;28;20031;-68
2022/07/20 10:37:38;;;;;;;1.30;0.63;;;33.80;54.80;;;;;;4957482;28;20035;-68
2022/07/20 10:40:05;;;;;;;4.57;2.28;;;34.10;54.60;;;;;;4971210;28;20023;-68
2022/07/20 10:42:39;;;;;;;0.22;0.17;;;34.40;54.80;;;;;;4963804;28;20022;-68
2022/07/20 10:45:19;;;;;;;0.82;0.63;;;34.70;53.70;;;;;;4971620;28;20399;-69
2022/07/20 10:47:44;;;;;;;0.13;0.13;;;34.80;53.70;;;;;;4962450;28;20123;-68
2022/07/20 10:50:37;;;;;;;0.63;0.50;;;34.90;54.80;;;;;;4972512;28;20110;-69
2022/07/20 10:53:15;;;;;;;0.73;0.30;;;34.80;54.20;;;;;;4961036;28;20046;-67
2022/07/20 10:55:52;;;;;;;0.63;0.63;;;35.10;53.50;;;;;;4897838;28;20051;-67
2022/07/20 10:58:23;;;;;;;0.52;0.40;;;34.90;53.30;;;;;;4969457;28;20028;-68
2022/07/20 11:01:11;;;;;;;1.33;1.00;;;35.00;53.30;;;;;;4973113;28;20034;-68
2022/07/20 11:03:44;;;;;;;0.88;0.82;;;35.00;54.50;;;;;;4964252;28;20395;-68
2022/07/20 11:06:23;;;;;;;44.88;1.63;;;35.00;53.40;;;;;;4969728;28;20047;-67
2022/07/20 11:08:58;;;;;;;9.27;2.83;;;35.40;53.70;;;;;;4965252;28;20061;-67
2022/07/20 11:11:33;;;;;;;0.52;0.52;;;35.50;53.90;;;;;;4968486;28;20114;-68
2022/07/20 11:14:02;;;;;;;1.67;0.63;;;35.80;53.70;;;;;;4949336;28;20367;-67
2022/07/20 11:16:29;;;;;;;3.30;0.83;;;35.80;52.50;;;;;;5002397;23;20088;-67
2022/07/20 11:18:57;;;;;;;0.80;0.73;;;35.80;52.90;;;;;;4997197;28;20700;-67
2022/07/20 11:21:40;;;;;;;1.00;0.77;;;35.80;52.40;;;;;;4996382;28;20031;-68
2022/07/20 11:24:27;;;;;;;4.57;1.67;;;35.70;52.70;;;;;;5022753;28;20109;-67
2022/07/20 11:26:54;;;;;;;2.50;1.95;;;36.00;53.10;;;;;;4981344;28;20487;-67
2022/07/20 11:29:24;;;;;;;0.80;0.80;;;36.30;53.10;;;;;;4988541;28;20037;-67
2022/07/20 11:31:50;;;;;;;;;;;36.50;53.10;;;;;;4983385;28;20554;-67
2022/07/20 11:34:16;;;;;;;1.05;0.90;;;36.60;53.20;;;;;;4987758;28;19925;-67
2022/07/20 11:36:42;;;;;;;2.15;1.45;;;36.40;52.60;;;;;;4985655;28;20039;-67
2022/07/20 11:39:10;;;;;;;2.13;1.48;;;36.50;53.30;;;;;;4986501;28;20030;-67
2022/07/20 11:41:42;;;;;;;0.80;0.73;;;36.20;52.80;;;;;;4981358;28;20030;-67
2022/07/20 11:44:17;;;;;;;1.55;0.85;;;36.50;53.50;;;;;;4986885;28;20096;-67
2022/07/20 11:46:44;;;;;;;3.90;0.90;;;36.20;53.10;;;;;;4984096;28;20031;-66
2022/07/20 11:49:14;;;;;;;1.98;1.33;;;35.70;53.30;;;;;;4976136;28;20031;-67
2022/07/20 11:51:53;;;;;;;6.65;1.92;;;35.90;54.00;;;;;;4979711;28;20045;-67
2022/07/20 11:54:25;;;;;;;3.15;1.90;;;36.20;53.80;;;;;;4987619;28;20026;-66
2022/07/20 11:56:52;;;;;;;3.28;2.50;;;36.30;53.50;;;;;;4983097;28;20026;-67
2022/07/20 11:59:19;;;;;;;6.53;1.20;;;36.20;53.20;;;;;;5002381;28;20054;-67
2022/07/20 12:01:50;;;;;;;0.90;0.85;;;36.10;53.40;;;;;;4983500;28;20085;-67
2022/07/20 12:04:19;;;;;;;1.40;1.10;;;36.40;53.10;;;;;;4982845;28;20038;-67
2022/07/20 12:06:45;;;;;;;1.38;0.73;;;36.60;53.10;;;;;;4984763;28;20037;-66
2022/07/20 12:09:14;;;;;;;1.35;1.25;;;36.30;52.80;;;;;;4973552;28;20113;-67
2022/07/20 12:12:05;;;;;;;3.58;1.98;;;36.50;53.70;;;;;;4978346;28;20050;-67
2022/07/20 12:14:41;;;;;;;0.63;0.60;;;36.70;53.90;;;;;;4971411;28;20534;-67
2022/07/20 12:17:13;;;;;;;0.93;0.77;;;37.10;53.00;;;;;;4979975;28;20022;-66
2022/07/20 12:19:41;;;;;;;0.52;0.52;;;37.20;52.90;;;;;;4985263;28;20077;-66
2022/07/20 12:22:23;;;;;;;2.15;1.77;;;37.40;52.60;;;;;;4981525;28;20049;-65
2022/07/20 12:25:07;;;;;;;1.13;0.70;;;37.30;52.70;;;;;;4982355;28;20038;-67
2022/07/20 12:27:36;;;;;;;4.47;1.33;;;36.90;52.90;;;;;;4984570;28;20548;-69
2022/07/20 12:30:22;;;;;;;0.50;0.50;;;37.20;53.30;;;;;;4988133;28;20037;-67
2022/07/20 12:33:13;;;;;;;1.25;1.15;;;37.10;53.90;;;;;;4978731;28;20046;-67
2022/07/20 12:35:46;;;;;;;1.20;0.85;;;37.30;53.30;;;;;;4970802;28;20049;-67
2022/07/20 12:38:13;;;;;;;3.22;1.90;;;37.80;53.60;;;;;;4975825;28;20026;-67
2022/07/20 12:40:48;;;;;;;2.60;0.88;;;37.90;53.30;;;;;;4955862;28;20034;-65
2022/07/20 12:43:33;;;;;;;2.13;1.20;;;38.20;53.10;;;;;;4969886;28;20430;-66
2022/07/20 12:46:07;;;;;;;0.85;0.70;;;38.20;53.20;;;;;;4952183;28;20037;-66
2022/07/20 12:48:45;;;;;;;4.07;2.03;;;38.30;52.50;;;;;;4979688;28;20045;-67
2022/07/20 12:51:12;;;;;;;5.25;0.88;;;38.50;52.70;;;;;;4987355;28;20054;-66
2022/07/20 12:53:41;;;;;;;2.38;0.85;;;38.70;52.20;;;;;;4981278;28;20035;-67
2022/07/20 12:56:08;;;;;;;1.43;1.33;;;38.80;52.70;;;;;;4981594;28;20026;-67